Thunder radar more information blitzortung!


Radar de pluja more information rain snow radar


Visita la nostra xarxa de llocs de meteo:

Template documentation
and downloads

And another site



No particular awareness of the weather is required.    There are no Weather-warnings

Pagina Historial Weather Underground text

Diari Resum Marc 3, 2016 Unitats:  Mètric    Imperial   Tant
« Previous Dia
SegĂźent Dia »
Diari Setmana Mensual Anual Personalitzada
  Maxima: Minima: Media:
Temperatura: 18.1 °C 8.4 °C 13.7 °C
Punt de rosada: 2.7 °C -2.1 °C 0.3 °C
Humitat: 51 % 30 % 40 %
Wind Speed: 22.2 km/h 0.0 km/h 10.2 km/h
RĂ fegues de vent: 22.2 km/h - -
Vent:- - WSW
Pression baro: 1014.8 hPa 1010.7 hPa -
Precipitacions: 0.0 mm    
Historical Graphs
 
 
Dades de taula per Marc 3, 2016
Temps Temperatura Punt de rosada Pression baro Vent Wind Speed RĂ fegues de vent Humitat Rainfall Rate (Hourly)
11:16 10.5 °C 0.8 °C 1013.8 hPa West 13.0 km/h 13.0 km/h 51 % 0.0 mm
11:21 10.8 °C 1.1 °C 1013.8 hPa West 14.8 km/h 14.8 km/h 51 % 0.0 mm
11:26 11.2 °C 1.4 °C 1013.8 hPa West 9.3 km/h 9.3 km/h 51 % 0.0 mm
11:31 11.3 °C 1.5 °C 1013.8 hPa WSW 14.8 km/h 14.8 km/h 51 % 0.0 mm
11:36 11.8 °C 2.0 °C 1013.8 hPa WSW 9.3 km/h 9.3 km/h 51 % 0.0 mm
11:41 11.9 °C 1.8 °C 1013.8 hPa West 13.0 km/h 13.0 km/h 50 % 0.0 mm
11:46 11.8 °C 1.4 °C 1013.8 hPa WNW 16.7 km/h 16.7 km/h 49 % 0.0 mm
11:51 12.1 °C 1.7 °C 1013.8 hPa NNW 18.5 km/h 18.5 km/h 49 % 0.0 mm
11:56 12.2 °C 1.5 °C 1013.8 hPa WSW 13.0 km/h 13.0 km/h 48 % 0.0 mm
12:01 12.5 °C 1.8 °C 1013.8 hPa West 13.0 km/h 13.0 km/h 48 % 0.0 mm
12:06 12.7 °C 1.7 °C 1013.8 hPa West 11.1 km/h 11.1 km/h 47 % 0.0 mm
12:11 13.3 °C 2.2 °C 1013.8 hPa NNW 14.8 km/h 14.8 km/h 47 % 0.0 mm
12:16 13.3 °C 2.2 °C 1012.8 hPa WSW 13.0 km/h 13.0 km/h 47 % 0.0 mm
12:21 13.7 °C 2.6 °C 1012.8 hPa WSW 9.3 km/h 9.3 km/h 47 % 0.0 mm
12:26 13.7 °C 2.3 °C 1012.8 hPa WSW 9.3 km/h 9.3 km/h 46 % 0.0 mm
12:31 13.8 °C 2.4 °C 1013.8 hPa ENE 12.6 km/h 12.6 km/h 46 % 0.0 mm
12:36 13.8 °C 1.7 °C 1013.8 hPa WNW 15.1 km/h 15.1 km/h 44 % 0.0 mm
12:41 14.1 °C 2.0 °C 1013.8 hPa SW 13.0 km/h 13.0 km/h 44 % 0.0 mm
12:46 14.2 °C 1.8 °C 1013.8 hPa WSW 14.8 km/h 14.8 km/h 43 % 0.0 mm
12:51 14.6 °C 2.2 °C 1013.8 hPa WNW 13.0 km/h 13.0 km/h 43 % 0.0 mm
12:56 14.8 °C 2.3 °C 1013.8 hPa West 13.0 km/h 13.0 km/h 43 % 0.0 mm
13:01 14.6 °C 1.8 °C 1013.8 hPa West 16.7 km/h 16.7 km/h 42 % 0.0 mm
13:06 14.7 °C 1.9 °C 1013.8 hPa WSW 13.0 km/h 13.0 km/h 42 % 0.0 mm
13:11 14.9 °C 2.1 °C 1013.8 hPa WSW 11.1 km/h 11.1 km/h 42 % 0.0 mm
13:16 15.1 °C 2.3 °C 1013.8 hPa WSW 13.0 km/h 13.0 km/h 42 % 0.0 mm
13:21 15.4 °C 2.6 °C 1013.8 hPa WSW 11.1 km/h 11.1 km/h 42 % 0.0 mm
13:26 15.6 °C 2.7 °C 1013.8 hPa WSW 9.3 km/h 9.3 km/h 42 % 0.0 mm
13:31 15.6 °C 2.4 °C 1013.8 hPa WSW 9.3 km/h 9.3 km/h 41 % 0.0 mm
13:36 15.5 °C 2.3 °C 1013.8 hPa West 14.8 km/h 14.8 km/h 41 % 0.0 mm
13:41 15.5 °C 1.9 °C 1013.8 hPa WNW 14.8 km/h 14.8 km/h 40 % 0.0 mm
13:46 15.8 °C 2.6 °C 1012.8 hPa West 11.1 km/h 11.1 km/h 41 % 0.0 mm
13:51 15.9 °C 2.3 °C 1012.8 hPa WSW 12.6 km/h 12.6 km/h 40 % 0.0 mm
13:56 16.1 °C 2.5 °C 1012.8 hPa WSW 13.7 km/h 13.7 km/h 40 % 0.0 mm
14:01 16.2 °C 2.6 °C 1011.7 hPa West 13.0 km/h 13.0 km/h 40 % 0.0 mm
14:06 16.0 °C 2.1 °C 1011.7 hPa West 14.8 km/h 14.8 km/h 39 % 0.0 mm
14:11 16.4 °C 2.4 °C 1011.7 hPa West 11.1 km/h 11.1 km/h 39 % 0.0 mm
14:16 16.5 °C 2.1 °C 1011.7 hPa South 11.1 km/h 11.1 km/h 38 % 0.0 mm
14:21 16.7 °C 2.3 °C 1011.7 hPa South 11.1 km/h 11.1 km/h 38 % 0.0 mm
14:26 16.8 °C 2.4 °C 1011.7 hPa SW 14.8 km/h 14.8 km/h 38 % 0.0 mm
14:31 17.0 °C 2.2 °C 1011.7 hPa SSW 11.1 km/h 11.1 km/h 37 % 0.0 mm
14:36 16.9 °C 1.7 °C 1011.7 hPa SW 18.5 km/h 18.5 km/h 36 % 0.0 mm
14:41 17.2 °C 2.4 °C 1011.7 hPa SSW 13.0 km/h 13.0 km/h 37 % 0.0 mm
14:46 17.4 °C 1.8 °C 1011.7 hPa SW 14.8 km/h 14.8 km/h 35 % 0.0 mm
14:51 17.4 °C 1.8 °C 1011.7 hPa WSW 11.9 km/h 11.9 km/h 35 % 0.0 mm
14:56 17.2 °C 1.6 °C 1011.7 hPa WSW 13.0 km/h 13.0 km/h 35 % 0.0 mm
15:01 17.3 °C 1.3 °C 1011.7 hPa West 9.3 km/h 9.3 km/h 34 % 0.0 mm
15:11 17.7 °C 1.6 °C 1011.7 hPa WNW 9.3 km/h 9.3 km/h 34 % 0.0 mm
15:16 17.7 °C 1.2 °C 1011.7 hPa NW 7.4 km/h 7.4 km/h 33 % 0.0 mm
15:21 17.7 °C 0.8 °C 1011.7 hPa SSW 13.0 km/h 13.0 km/h 32 % 0.0 mm
15:26 17.7 °C 0.8 °C 1011.7 hPa WNW 7.4 km/h 7.4 km/h 32 % 0.0 mm
15:31 17.9 °C 0.9 °C 1011.7 hPa West 9.3 km/h 9.3 km/h 32 % 0.0 mm
15:36 18.0 °C 0.6 °C 1011.7 hPa SW 4.7 km/h 4.7 km/h 31 % 0.0 mm
15:41 18.1 °C 0.7 °C 1011.7 hPa SSE 5.6 km/h 5.6 km/h 31 % 0.0 mm
15:46 17.9 °C 0.5 °C 1010.7 hPa SW 11.1 km/h 11.1 km/h 31 % 0.0 mm
15:51 17.8 °C 0.4 °C 1010.7 hPa WSW 11.1 km/h 11.1 km/h 31 % 0.0 mm
15:56 17.9 °C 0.5 °C 1010.7 hPa West 11.1 km/h 11.1 km/h 31 % 0.0 mm
16:01 18.1 °C 0.2 °C 1010.7 hPa West 19.0 km/h 19.0 km/h 30 % 0.0 mm
16:06 17.8 °C 0.4 °C 1010.7 hPa SW 22.2 km/h 22.2 km/h 31 % 0.0 mm
16:11 17.6 °C 0.3 °C 1010.7 hPa West 14.8 km/h 14.8 km/h 31 % 0.0 mm
16:16 17.7 °C 0.8 °C 1010.7 hPa WSW 11.1 km/h 11.1 km/h 32 % 0.0 mm
16:21 17.8 °C 0.9 °C 1010.7 hPa West 8.7 km/h 8.7 km/h 32 % 0.0 mm
16:26 17.5 °C 0.6 °C 1010.7 hPa WSW 11.1 km/h 11.1 km/h 32 % 0.0 mm
16:31 17.6 °C 0.3 °C 1010.7 hPa West 16.7 km/h 16.7 km/h 31 % 0.0 mm
16:36 17.3 °C 0.0 °C 1010.7 hPa West 18.5 km/h 18.5 km/h 31 % 0.0 mm
16:41 17.3 °C 0.4 °C 1010.7 hPa WSW 9.7 km/h 9.7 km/h 32 % 0.0 mm
16:46 17.3 °C 0.4 °C 1010.7 hPa WSW 11.1 km/h 11.1 km/h 32 % 0.0 mm
16:51 17.2 °C 0.3 °C 1010.7 hPa WSW 11.1 km/h 11.1 km/h 32 % 0.0 mm
16:56 17.1 °C 0.3 °C 1010.7 hPa WSW 14.8 km/h 14.8 km/h 32 % 0.0 mm
17:01 16.9 °C 0.1 °C 1010.7 hPa West 14.8 km/h 14.8 km/h 32 % 0.0 mm
17:07 17.3 °C 0.4 °C 1010.7 hPa South 9.3 km/h 9.3 km/h 32 % 0.0 mm
17:12 17.1 °C 0.7 °C 1010.7 hPa NNW 11.9 km/h 11.9 km/h 33 % 0.0 mm
17:22 16.7 °C 0.3 °C 1010.7 hPa WNW 9.3 km/h 9.3 km/h 33 % 0.0 mm
17:32 16.6 °C 0.2 °C 1010.7 hPa West 14.8 km/h 14.8 km/h 33 % 0.0 mm
17:37 16.5 °C -0.3 °C 1010.7 hPa WSW 11.1 km/h 11.1 km/h 32 % 0.0 mm
17:42 16.4 °C -0.3 °C 1010.7 hPa SW 13.0 km/h 13.0 km/h 32 % 0.0 mm
17:47 16.4 °C 0.1 °C 1011.7 hPa SSW 11.1 km/h 11.1 km/h 33 % 0.0 mm
17:52 16.2 °C -0.1 °C 1011.7 hPa SW 16.7 km/h 16.7 km/h 33 % 0.0 mm
17:57 16.0 °C -0.3 °C 1011.7 hPa West 13.0 km/h 13.0 km/h 33 % 0.0 mm
18:02 15.9 °C -0.4 °C 1010.7 hPa WSW 13.0 km/h 13.0 km/h 33 % 0.0 mm
18:07 15.7 °C -0.6 °C 1010.7 hPa WSW 13.7 km/h 13.7 km/h 33 % 0.0 mm
18:12 15.6 °C -0.6 °C 1010.7 hPa WNW 13.0 km/h 13.0 km/h 33 % 0.0 mm
18:17 15.3 °C -0.9 °C 1011.7 hPa WSW 9.3 km/h 9.3 km/h 33 % 0.0 mm
18:22 15.2 °C -1.0 °C 1011.7 hPa WNW 9.3 km/h 9.3 km/h 33 % 0.0 mm
18:27 15.0 °C -0.8 °C 1011.7 hPa West 5.6 km/h 5.6 km/h 34 % 0.0 mm
18:32 14.7 °C -1.0 °C 1011.7 hPa West 14.8 km/h 14.8 km/h 34 % 0.0 mm
18:37 14.5 °C -1.2 °C 1011.7 hPa WSW 9.0 km/h 9.0 km/h 34 % 0.0 mm
18:42 14.3 °C -1.4 °C 1011.7 hPa WSW 5.6 km/h 5.6 km/h 34 % 0.0 mm
18:47 14.1 °C -1.6 °C 1011.7 hPa WSW 7.4 km/h 7.4 km/h 34 % 0.0 mm
18:52 13.9 °C -1.7 °C 1011.7 hPa WSW 5.6 km/h 5.6 km/h 34 % 0.0 mm
18:57 13.7 °C -1.5 °C 1011.7 hPa West 11.1 km/h 11.1 km/h 35 % 0.0 mm
19:02 13.6 °C -1.6 °C 1011.7 hPa WSW 7.4 km/h 7.4 km/h 35 % 0.0 mm
19:07 13.3 °C -1.8 °C 1011.7 hPa WSW 5.6 km/h 5.6 km/h 35 % 0.0 mm
19:12 13.1 °C -2.1 °C 1011.7 hPa WSW 7.4 km/h 7.4 km/h 35 % 0.0 mm
19:17 13.0 °C -1.7 °C 1010.7 hPa WSW 9.3 km/h 9.3 km/h 36 % 0.0 mm
19:22 13.0 °C -1.7 °C 1010.7 hPa WNW 6.1 km/h 6.1 km/h 36 % 0.0 mm
19:27 12.9 °C -1.8 °C 1010.7 hPa SW 7.4 km/h 7.4 km/h 36 % 0.0 mm
19:32 12.9 °C -1.8 °C 1011.7 hPa WSW 7.4 km/h 7.4 km/h 36 % 0.0 mm
19:37 12.7 °C -2.0 °C 1011.7 hPa NNE 3.9 km/h 4.2 km/h 36 % 0.0 mm
19:42 12.6 °C -1.7 °C 1011.7 hPa WSW 10.0 km/h 10.0 km/h 37 % 0.0 mm
19:47 12.6 °C -1.7 °C 1012.8 hPa WSW 11.1 km/h 11.1 km/h 37 % 0.0 mm
19:52 12.5 °C -1.8 °C 1012.8 hPa WSW 10.3 km/h 10.3 km/h 37 % 0.0 mm
19:57 12.4 °C -1.6 °C 1012.8 hPa West 7.4 km/h 7.9 km/h 38 % 0.0 mm
20:02 12.3 °C -1.6 °C 1011.7 hPa West 11.1 km/h 11.1 km/h 38 % 0.0 mm
20:07 12.3 °C -1.6 °C 1011.7 hPa WSW 14.8 km/h 14.8 km/h 38 % 0.0 mm
20:12 12.1 °C -1.4 °C 1011.7 hPa West 9.3 km/h 9.3 km/h 39 % 0.0 mm
20:22 11.9 °C -1.3 °C 1012.8 hPa WNW 9.3 km/h 9.3 km/h 40 % 0.0 mm
20:27 11.9 °C -0.9 °C 1012.8 hPa WNW 14.8 km/h 14.8 km/h 41 % 0.0 mm
20:32 11.7 °C -1.1 °C 1012.8 hPa WSW 9.0 km/h 9.0 km/h 41 % 0.0 mm
20:37 11.7 °C -0.8 °C 1012.8 hPa SW 11.4 km/h 11.4 km/h 42 % 0.0 mm
20:42 11.5 °C -0.7 °C 1012.8 hPa WSW 7.4 km/h 8.7 km/h 43 % 0.0 mm
20:47 11.4 °C -0.8 °C 1012.8 hPa WSW 9.3 km/h 9.3 km/h 43 % 0.0 mm
20:52 11.3 °C -0.6 °C 1012.8 hPa West 7.4 km/h 7.4 km/h 44 % 0.0 mm
20:57 11.2 °C -0.6 °C 1012.8 hPa WSW 9.7 km/h 9.7 km/h 44 % 0.0 mm
21:02 11.1 °C -0.4 °C 1013.8 hPa West 7.4 km/h 7.4 km/h 45 % 0.0 mm
21:07 11.0 °C -0.5 °C 1013.8 hPa West 11.1 km/h 11.1 km/h 45 % 0.0 mm
21:12 10.9 °C -0.6 °C 1013.8 hPa West 5.6 km/h 5.6 km/h 45 % 0.0 mm
21:17 10.7 °C -0.4 °C 1013.8 hPa NE 4.7 km/h 4.7 km/h 46 % 0.0 mm
21:22 10.6 °C -0.6 °C 1013.8 hPa WSW 3.9 km/h 3.9 km/h 46 % 0.0 mm
21:27 10.5 °C -0.7 °C 1013.8 hPa WNW 9.3 km/h 9.3 km/h 46 % 0.0 mm
21:32 10.4 °C -0.7 °C 1012.8 hPa WSW 6.1 km/h 6.1 km/h 46 % 0.0 mm
21:37 10.4 °C -0.4 °C 1012.8 hPa WSW 4.7 km/h 5.3 km/h 47 % 0.0 mm
21:42 10.3 °C -0.6 °C 1012.8 hPa WSW 1.9 km/h 2.3 km/h 47 % 0.0 mm
21:47 10.2 °C -0.6 °C 1013.8 hPa WSW 5.8 km/h 5.8 km/h 47 % 0.0 mm
21:52 10.2 °C -0.3 °C 1013.8 hPa WNW 9.3 km/h 9.3 km/h 48 % 0.0 mm
21:57 10.1 °C -0.4 °C 1013.8 hPa WSW 7.4 km/h 7.4 km/h 48 % 0.0 mm
22:02 10.1 °C -0.2 °C 1013.8 hPa WNW 7.4 km/h 7.4 km/h 49 % 0.0 mm
22:07 9.9 °C -0.3 °C 1013.8 hPa West 3.7 km/h 3.7 km/h 49 % 0.0 mm
22:12 9.9 °C -0.3 °C 1013.8 hPa WNW 9.5 km/h 9.5 km/h 49 % 0.0 mm
22:17 10.0 °C -0.2 °C 1013.8 hPa ENE 7.4 km/h 7.4 km/h 49 % 0.0 mm
22:22 9.9 °C -0.1 °C 1013.8 hPa West 13.0 km/h 13.0 km/h 50 % 0.0 mm
22:27 9.8 °C -0.2 °C 1013.8 hPa WNW 3.7 km/h 3.9 km/h 50 % 0.0 mm
22:32 9.7 °C -0.2 °C 1014.8 hPa West 5.6 km/h 5.6 km/h 50 % 0.0 mm
22:37 9.7 °C -0.2 °C 1014.8 hPa NNE 5.6 km/h 5.6 km/h 50 % 0.0 mm
22:42 9.6 °C -0.3 °C 1014.8 hPa WNW 9.3 km/h 9.3 km/h 50 % 0.0 mm
22:47 9.6 °C -0.3 °C 1014.8 hPa NW 5.6 km/h 5.6 km/h 50 % 0.0 mm
22:52 9.5 °C -0.2 °C 1014.8 hPa NE 5.6 km/h 5.6 km/h 51 % 0.0 mm
22:57 9.4 °C -0.5 °C 1014.8 hPa WNW 5.6 km/h 5.6 km/h 50 % 0.0 mm
23:02 9.2 °C -0.7 °C 1014.8 hPa ENE 5.6 km/h 5.6 km/h 50 % 0.0 mm
23:07 9.1 °C -0.8 °C 1014.8 hPa NNE 5.6 km/h 5.6 km/h 50 % 0.0 mm
23:12 9.0 °C -0.6 °C 1014.8 hPa NNE 5.6 km/h 5.6 km/h 51 % 0.0 mm
23:17 8.9 °C -0.7 °C 1014.8 hPa NE 3.7 km/h 3.7 km/h 51 % 0.0 mm
23:22 8.9 °C -0.7 °C 1014.8 hPa Calm     51 % 0.0 mm
23:27 8.7 °C -0.9 °C 1014.8 hPa WNW 1.9 km/h   51 % 0.0 mm
23:32 8.6 °C -1.0 °C 1014.8 hPa Calm     51 % 0.0 mm
23:37 8.5 °C -1.1 °C 1014.8 hPa ENE 3.7 km/h 3.7 km/h 51 % 0.0 mm
23:42 8.5 °C -1.1 °C 1014.8 hPa NE 3.7 km/h 3.7 km/h 51 % 0.0 mm
23:47 8.4 °C -1.2 °C 1014.8 hPa NNE 3.7 km/h 3.7 km/h 51 % 0.0 mm
Meteo Sesrovires
Elogis d' Weather Underground - 3.25 mb

Guio original per  Jim McMurry - jmcmurry@mwt.net Adaptat per a la plantilla per  Wim van der Kuil - Leuven-Template.eu

Trobareu la nostra informacio del temps tambe a:

Weather Underground

AWEKAS